sensor_id;sensor_type;location;lat;lon;timestamp;temperature;humidity
70149;DHT22;57514;52.164;5.282;2022-09-01T00:01:29;16.20;71.70
70149;DHT22;57514;52.164;5.282;2022-09-01T00:03:57;16.20;72.10
70149;DHT22;57514;52.164;5.282;2022-09-01T00:06:30;16.30;72.30
70149;DHT22;57514;52.164;5.282;2022-09-01T00:09:04;14.90;75.80
70149;DHT22;57514;52.164;5.282;2022-09-01T00:11:32;16.10;72.40
70149;DHT22;57514;52.164;5.282;2022-09-01T00:14:00;16.10;72.70
70149;DHT22;57514;52.164;5.282;2022-09-01T00:16:28;16.00;72.70
70149;DHT22;57514;52.164;5.282;2022-09-01T00:21:28;15.90;73.20
70149;DHT22;57514;52.164;5.282;2022-09-01T00:26:23;15.90;72.70
70149;DHT22;57514;52.164;5.282;2022-09-01T00:33:47;15.80;73.80
70149;DHT22;57514;52.164;5.282;2022-09-01T00:36:15;15.80;73.70
70149;DHT22;57514;52.164;5.282;2022-09-01T00:41:10;15.80;74.00
70149;DHT22;57514;52.164;5.282;2022-09-01T00:43:43;15.70;74.20
70149;DHT22;57514;52.164;5.282;2022-09-01T00:46:17;15.70;74.50
70149;DHT22;57514;52.164;5.282;2022-09-01T00:49:02;14.80;84.60
70149;DHT22;57514;52.164;5.282;2022-09-01T00:51:32;14.30;74.60
70149;DHT22;57514;52.164;5.282;2022-09-01T00:54:00;15.80;85.60
70149;DHT22;57514;52.164;5.282;2022-09-01T00:56:29;17.00;77.30
70149;DHT22;57514;52.164;5.282;2022-09-01T00:58:59;15.60;75.00
70149;DHT22;57514;52.164;5.282;2022-09-01T01:01:26;15.50;74.20
70149;DHT22;57514;52.164;5.282;2022-09-01T01:08:58;16.50;79.60
70149;DHT22;57514;52.164;5.282;2022-09-01T01:11:29;15.50;75.60
70149;DHT22;57514;52.164;5.282;2022-09-01T01:14:01;15.90;76.00
70149;DHT22;57514;52.164;5.282;2022-09-01T01:16:38;15.30;75.70
70149;DHT22;57514;52.164;5.282;2022-09-01T01:19:39;15.40;74.10
70149;DHT22;57514;52.164;5.282;2022-09-01T01:28:22;12.00;72.70
70149;DHT22;57514;52.164;5.282;2022-09-01T01:30:54;15.30;76.20
70149;DHT22;57514;52.164;5.282;2022-09-01T01:33:25;15.30;76.40
70149;DHT22;57514;52.164;5.282;2022-09-01T01:38:25;15.20;75.90
70149;DHT22;57514;52.164;5.282;2022-09-01T01:45:53;15.10;76.80
70149;DHT22;57514;52.164;5.282;2022-09-01T01:50:55;15.20;77.00
70149;DHT22;57514;52.164;5.282;2022-09-01T01:53:27;15.10;76.60
70149;DHT22;57514;52.164;5.282;2022-09-01T02:00:52;15.00;77.40
70149;DHT22;57514;52.164;5.282;2022-09-01T02:03:22;15.40;90.40
70149;DHT22;57514;52.164;5.282;2022-09-01T02:05:52;15.00;77.20
70149;DHT22;57514;52.164;5.282;2022-09-01T02:10:53;15.00;77.30
70149;DHT22;57514;52.164;5.282;2022-09-01T02:13:22;14.90;77.40
70149;DHT22;57514;52.164;5.282;2022-09-01T02:16:07;13.50;90.10
70149;DHT22;57514;52.164;5.282;2022-09-01T02:18:40;14.90;78.60
70149;DHT22;57514;52.164;5.282;2022-09-01T02:21:09;15.00;77.50
70149;DHT22;57514;52.164;5.282;2022-09-01T02:26:10;14.10;90.20
70149;DHT22;57514;52.164;5.282;2022-09-01T02:28:44;14.90;77.50
70149;DHT22;57514;52.164;5.282;2022-09-01T02:31:25;16.10;83.30
70149;DHT22;57514;52.164;5.282;2022-09-01T02:36:21;15.40;80.20
70149;DHT22;57514;52.164;5.282;2022-09-01T02:41:21;14.70;77.70
70149;DHT22;57514;52.164;5.282;2022-09-01T02:51:19;14.80;77.40
70149;DHT22;57514;52.164;5.282;2022-09-01T02:53:47;14.90;77.00
70149;DHT22;57514;52.164;5.282;2022-09-01T02:58:44;14.70;77.70
70149;DHT22;57514;52.164;5.282;2022-09-01T03:01:19;14.70;76.40
70149;DHT22;57514;52.164;5.282;2022-09-01T03:03:54;14.70;78.10
70149;DHT22;57514;52.164;5.282;2022-09-01T03:40:57;14.50;78.20
70149;DHT22;57514;52.164;5.282;2022-09-01T03:43:32;14.50;77.90
70149;DHT22;57514;52.164;5.282;2022-09-01T03:53:32;14.30;78.70
70149;DHT22;57514;52.164;5.282;2022-09-01T03:56:04;14.30;78.30
70149;DHT22;57514;52.164;5.282;2022-09-01T04:11:01;14.20;78.90
70149;DHT22;57514;52.164;5.282;2022-09-01T04:20:57;14.00;79.00
70149;DHT22;57514;52.164;5.282;2022-09-01T04:26:07;14.00;79.20
70149;DHT22;57514;52.164;5.282;2022-09-01T04:31:14;13.90;78.70
70149;DHT22;57514;52.164;5.282;2022-09-01T04:33:46;14.10;79.40
70149;DHT22;57514;52.164;5.282;2022-09-01T04:43:44;14.00;78.70
70149;DHT22;57514;52.164;5.282;2022-09-01T05:14:45;13.90;79.70
70149;DHT22;57514;52.164;5.282;2022-09-01T05:37:12;15.60;83.40
70149;DHT22;57514;52.164;5.282;2022-09-01T05:39:40;13.10;80.80
70149;DHT22;57514;52.164;5.282;2022-09-01T05:44:37;14.30;78.90
70149;DHT22;57514;52.164;5.282;2022-09-01T05:49:48;14.80;91.10
70149;DHT22;57514;52.164;5.282;2022-09-01T05:52:15;15.10;91.10
70149;DHT22;57514;52.164;5.282;2022-09-01T05:54:42;14.50;90.90
70149;DHT22;57514;52.164;5.282;2022-09-01T06:07:29;16.70;82.40
70149;DHT22;57514;52.164;5.282;2022-09-01T06:09:59;15.60;78.00
70149;DHT22;57514;52.164;5.282;2022-09-01T06:19:54;18.30;79.20
70149;DHT22;57514;52.164;5.282;2022-09-01T06:24:50;20.50;74.20
70149;DHT22;57514;52.164;5.282;2022-09-01T06:55:15;28.30;45.00
70149;DHT22;57514;52.164;5.282;2022-09-01T06:57:43;28.10;47.20
70149;DHT22;57514;52.164;5.282;2022-09-01T07:00:45;28.30;49.20
70149;DHT22;57514;52.164;5.282;2022-09-01T07:03:14;28.50;44.70
70149;DHT22;57514;52.164;5.282;2022-09-01T07:09:16;29.20;51.80
70149;DHT22;57514;52.164;5.282;2022-09-01T07:12:21;29.40;50.50
70149;DHT22;57514;52.164;5.282;2022-09-01T07:14:51;29.90;40.70
70149;DHT22;57514;52.164;5.282;2022-09-01T07:17:40;33.00;38.30
70149;DHT22;57514;52.164;5.282;2022-09-01T07:20:09;30.10;47.40
70149;DHT22;57514;52.164;5.282;2022-09-01T07:22:54;31.40;47.30
70149;DHT22;57514;52.164;5.282;2022-09-01T07:25:31;30.70;46.30
70149;DHT22;57514;52.164;5.282;2022-09-01T07:31:04;30.90;42.80
70149;DHT22;57514;52.164;5.282;2022-09-01T07:33:53;32.10;30.20
70149;DHT22;57514;52.164;5.282;2022-09-01T07:36:41;33.20;32.50
70149;DHT22;57514;52.164;5.282;2022-09-01T07:39:29;32.50;41.50
70149;DHT22;57514;52.164;5.282;2022-09-01T07:45:44;34.70;38.30
70149;DHT22;57514;52.164;5.282;2022-09-01T07:48:17;33.50;25.10
70149;DHT22;57514;52.164;5.282;2022-09-01T07:51:06;33.30;38.30
70149;DHT22;57514;52.164;5.282;2022-09-01T07:53:53;33.50;38.30
70149;DHT22;57514;52.164;5.282;2022-09-01T07:56:23;34.00;37.30
70149;DHT22;57514;52.164;5.282;2022-09-01T07:58:51;34.40;36.10
70149;DHT22;57514;52.164;5.282;2022-09-01T08:01:23;35.20;35.70
70149;DHT22;57514;52.164;5.282;2022-09-01T08:03:51;35.50;24.30
70149;DHT22;57514;52.164;5.282;2022-09-01T08:06:21;35.30;35.00
70149;DHT22;57514;52.164;5.282;2022-09-01T08:08:57;35.80;25.80
70149;DHT22;57514;52.164;5.282;2022-09-01T08:11:28;32.40;31.00
70149;DHT22;57514;52.164;5.282;2022-09-01T08:14:15;36.50;34.60
70149;DHT22;57514;52.164;5.282;2022-09-01T08:16:44;35.10;32.10
70149;DHT22;57514;52.164;5.282;2022-09-01T08:24:47;35.50;32.60
70149;DHT22;57514;52.164;5.282;2022-09-01T08:27:14;36.00;31.80
70149;DHT22;57514;52.164;5.282;2022-09-01T08:32:09;37.10;30.40
70149;DHT22;57514;52.164;5.282;2022-09-01T08:34:37;38.00;31.10
70149;DHT22;57514;52.164;5.282;2022-09-01T08:37:05;37.00;30.20
70149;DHT22;57514;52.164;5.282;2022-09-01T08:39:32;36.10;29.30
70149;DHT22;57514;52.164;5.282;2022-09-01T08:42:12;37.30;30.70
70149;DHT22;57514;52.164;5.282;2022-09-01T08:47:11;37.30;30.10
70149;DHT22;57514;52.164;5.282;2022-09-01T08:49:42;35.70;29.20
70149;DHT22;57514;52.164;5.282;2022-09-01T08:52:41;37.80;30.80
70149;DHT22;57514;52.164;5.282;2022-09-01T08:55:18;36.70;28.90
70149;DHT22;57514;52.164;5.282;2022-09-01T08:57:50;38.60;29.20
70149;DHT22;57514;52.164;5.282;2022-09-01T09:00:30;38.60;29.50
70149;DHT22;57514;52.164;5.282;2022-09-01T09:06:14;37.90;27.80
70149;DHT22;57514;52.164;5.282;2022-09-01T09:16:53;40.70;27.10
70149;DHT22;57514;52.164;5.282;2022-09-01T09:19:43;40.30;16.50
70149;DHT22;57514;52.164;5.282;2022-09-01T09:22:15;43.40;17.50
70149;DHT22;57514;52.164;5.282;2022-09-01T09:25:02;40.50;16.40
70149;DHT22;57514;52.164;5.282;2022-09-01T09:27:38;42.00;26.00
70149;DHT22;57514;52.164;5.282;2022-09-01T09:35:40;39.70;23.80
70149;DHT22;57514;52.164;5.282;2022-09-01T09:41:05;41.40;14.90
70149;DHT22;57514;52.164;5.282;2022-09-01T09:44:02;41.40;14.40
70149;DHT22;57514;52.164;5.282;2022-09-01T09:49:21;41.00;14.40
70149;DHT22;57514;52.164;5.282;2022-09-01T09:54:31;40.20;22.60
70149;DHT22;57514;52.164;5.282;2022-09-01T09:57:08;41.10;25.50
70149;DHT22;57514;52.164;5.282;2022-09-01T09:59:56;38.20;23.50
70149;DHT22;57514;52.164;5.282;2022-09-01T10:02:36;38.20;24.70
70149;DHT22;57514;52.164;5.282;2022-09-01T10:07:56;39.90;14.40
70149;DHT22;57514;52.164;5.282;2022-09-01T10:10:45;40.40;14.80
70149;DHT22;57514;52.164;5.282;2022-09-01T10:13:25;39.70;23.40
70149;DHT22;57514;52.164;5.282;2022-09-01T10:15:59;40.00;14.40
70149;DHT22;57514;52.164;5.282;2022-09-01T10:18:38;39.30;24.30
70149;DHT22;57514;52.164;5.282;2022-09-01T10:21:13;40.20;26.10
70149;DHT22;57514;52.164;5.282;2022-09-01T10:23:41;38.90;24.90
70149;DHT22;57514;52.164;5.282;2022-09-01T10:26:14;39.00;23.70
70149;DHT22;57514;52.164;5.282;2022-09-01T10:29:00;38.90;14.90
70149;DHT22;57514;52.164;5.282;2022-09-01T10:31:32;38.20;14.80
70149;DHT22;57514;52.164;5.282;2022-09-01T10:34:00;38.30;15.60
70149;DHT22;57514;52.164;5.282;2022-09-01T10:36:29;38.20;15.30
70149;DHT22;57514;52.164;5.282;2022-09-01T10:38:56;38.70;24.00
70149;DHT22;57514;52.164;5.282;2022-09-01T10:41:55;39.30;24.20
70149;DHT22;57514;52.164;5.282;2022-09-01T10:44:36;39.50;23.60
70149;DHT22;57514;52.164;5.282;2022-09-01T10:55:24;40.90;22.20
70149;DHT22;57514;52.164;5.282;2022-09-01T11:01:07;44.00;21.70
70149;DHT22;57514;52.164;5.282;2022-09-01T11:03:50;42.90;12.90
70149;DHT22;57514;52.164;5.282;2022-09-01T11:07:01;41.70;19.90
70149;DHT22;57514;52.164;5.282;2022-09-01T11:10:26;42.70;12.10
70149;DHT22;57514;52.164;5.282;2022-09-01T11:15:45;42.20;12.80
70149;DHT22;57514;52.164;5.282;2022-09-01T11:18:23;44.40;14.00
70149;DHT22;57514;52.164;5.282;2022-09-01T11:20:52;42.80;21.00
70149;DHT22;57514;52.164;5.282;2022-09-01T11:23:22;43.40;12.90
70149;DHT22;57514;52.164;5.282;2022-09-01T11:25:51;43.20;12.90
70149;DHT22;57514;52.164;5.282;2022-09-01T11:28:39;42.20;12.10
70149;DHT22;57514;52.164;5.282;2022-09-01T11:33:49;40.00;20.30
70149;DHT22;57514;52.164;5.282;2022-09-01T11:36:44;41.30;12.50
70149;DHT22;57514;52.164;5.282;2022-09-01T11:42:06;43.20;21.80
70149;DHT22;57514;52.164;5.282;2022-09-01T11:48:02;40.90;19.40
70149;DHT22;57514;52.164;5.282;2022-09-01T11:50:33;43.10;20.10
70149;DHT22;57514;52.164;5.282;2022-09-01T11:53:07;42.90;11.70
70149;DHT22;57514;52.164;5.282;2022-09-01T11:55:35;44.50;20.10
70149;DHT22;57514;52.164;5.282;2022-09-01T11:58:03;43.00;11.10
70149;DHT22;57514;52.164;5.282;2022-09-01T12:00:34;40.90;18.30
70149;DHT22;57514;52.164;5.282;2022-09-01T12:03:18;43.70;19.70
70149;DHT22;57514;52.164;5.282;2022-09-01T12:05:51;42.20;11.00
70149;DHT22;57514;52.164;5.282;2022-09-01T12:08:20;41.10;11.70
70149;DHT22;57514;52.164;5.282;2022-09-01T12:10:50;38.00;20.90
70149;DHT22;57514;52.164;5.282;2022-09-01T12:13:20;39.40;13.00
70149;DHT22;57514;52.164;5.282;2022-09-01T12:18:48;38.30;14.00
70149;DHT22;57514;52.164;5.282;2022-09-01T12:21:27;39.10;13.80
70149;DHT22;57514;52.164;5.282;2022-09-01T12:24:10;40.00;22.30
70149;DHT22;57514;52.164;5.282;2022-09-01T12:26:38;40.90;20.90
70149;DHT22;57514;52.164;5.282;2022-09-01T12:29:05;41.40;12.90
70149;DHT22;57514;52.164;5.282;2022-09-01T12:31:33;40.00;21.20
70149;DHT22;57514;52.164;5.282;2022-09-01T12:34:00;39.90;22.60
70149;DHT22;57514;52.164;5.282;2022-09-01T12:36:36;39.80;14.30
70149;DHT22;57514;52.164;5.282;2022-09-01T12:39:21;38.90;22.50
70149;DHT22;57514;52.164;5.282;2022-09-01T12:42:11;39.00;23.10
70149;DHT22;57514;52.164;5.282;2022-09-01T12:47:13;38.00;24.10
70149;DHT22;57514;52.164;5.282;2022-09-01T12:49:45;38.20;24.70
70149;DHT22;57514;52.164;5.282;2022-09-01T12:54:50;36.60;14.50
70149;DHT22;57514;52.164;5.282;2022-09-01T12:57:28;36.60;25.00
70149;DHT22;57514;52.164;5.282;2022-09-01T13:02:39;35.30;24.90
70149;DHT22;57514;52.164;5.282;2022-09-01T13:05:30;34.90;24.90
70149;DHT22;57514;52.164;5.282;2022-09-01T13:08:13;34.40;25.10
70149;DHT22;57514;52.164;5.282;2022-09-01T13:10:50;36.00;20.00
70149;DHT22;57514;52.164;5.282;2022-09-01T13:13:19;34.40;19.50
70149;DHT22;57514;52.164;5.282;2022-09-01T13:15:50;34.40;26.10
70149;DHT22;57514;52.164;5.282;2022-09-01T13:18:18;33.90;26.10
70149;DHT22;57514;52.164;5.282;2022-09-01T13:20:46;34.40;22.40
70149;DHT22;57514;52.164;5.282;2022-09-01T13:23:13;33.60;27.30
70149;DHT22;57514;52.164;5.282;2022-09-01T13:25:40;33.60;16.50
70149;DHT22;57514;52.164;5.282;2022-09-01T13:28:09;34.20;24.20
70149;DHT22;57514;52.164;5.282;2022-09-01T13:30:37;32.00;28.00
70149;DHT22;57514;52.164;5.282;2022-09-01T13:33:04;32.80;28.70
70149;DHT22;57514;52.164;5.282;2022-09-01T13:35:49;32.20;17.80
70149;DHT22;57514;52.164;5.282;2022-09-01T13:38:17;31.60;21.10
70149;DHT22;57514;52.164;5.282;2022-09-01T13:40:46;30.30;18.10
70149;DHT22;57514;52.164;5.282;2022-09-01T13:43:14;31.50;31.00
70149;DHT22;57514;52.164;5.282;2022-09-01T13:48:11;30.10;26.30
70149;DHT22;57514;52.164;5.282;2022-09-01T13:50:43;30.30;31.80
70149;DHT22;57514;52.164;5.282;2022-09-01T13:53:30;29.10;31.40
70149;DHT22;57514;52.164;5.282;2022-09-01T13:58:24;28.70;32.80
70149;DHT22;57514;52.164;5.282;2022-09-01T14:00:51;29.70;34.50
70149;DHT22;57514;52.164;5.282;2022-09-01T14:03:21;30.30;27.20
70149;DHT22;57514;52.164;5.282;2022-09-01T14:05:49;30.00;35.80
70149;DHT22;57514;52.164;5.282;2022-09-01T14:08:18;28.90;22.60
70149;DHT22;57514;52.164;5.282;2022-09-01T14:10:48;27.80;34.60
70149;DHT22;57514;52.164;5.282;2022-09-01T14:13:18;28.30;22.90
70149;DHT22;57514;52.164;5.282;2022-09-01T14:18:14;28.60;37.20
70149;DHT22;57514;52.164;5.282;2022-09-01T14:20:44;29.60;30.90
70149;DHT22;57514;52.164;5.282;2022-09-01T14:23:13;29.40;32.80
70149;DHT22;57514;52.164;5.282;2022-09-01T14:25:46;28.30;22.90
70149;DHT22;57514;52.164;5.282;2022-09-01T14:28:14;27.00;26.70
70149;DHT22;57514;52.164;5.282;2022-09-01T14:30:47;29.70;38.90
70149;DHT22;57514;52.164;5.282;2022-09-01T14:33:14;26.90;27.50
70149;DHT22;57514;52.164;5.282;2022-09-01T14:35:45;26.80;26.80
70149;DHT22;57514;52.164;5.282;2022-09-01T14:40:41;26.80;37.10
70149;DHT22;57514;52.164;5.282;2022-09-01T14:43:10;29.70;39.40
70149;DHT22;57514;52.164;5.282;2022-09-01T14:45:41;28.10;38.10
70149;DHT22;57514;52.164;5.282;2022-09-01T14:48:15;28.00;24.70
70149;DHT22;57514;52.164;5.282;2022-09-01T14:50:43;30.20;27.20
70149;DHT22;57514;52.164;5.282;2022-09-01T14:53:11;27.60;25.20
70149;DHT22;57514;52.164;5.282;2022-09-01T14:55:38;28.00;39.40
70149;DHT22;57514;52.164;5.282;2022-09-01T14:58:09;27.00;39.00
70149;DHT22;57514;52.164;5.282;2022-09-01T15:03:06;27.60;29.20
70149;DHT22;57514;52.164;5.282;2022-09-01T15:05:36;26.40;26.00
70149;DHT22;57514;52.164;5.282;2022-09-01T15:08:07;28.60;35.10
70149;DHT22;57514;52.164;5.282;2022-09-01T15:10:39;27.90;40.30
70149;DHT22;57514;52.164;5.282;2022-09-01T15:13:07;26.80;28.50
70149;DHT22;57514;52.164;5.282;2022-09-01T15:18:01;25.80;39.60
70149;DHT22;57514;52.164;5.282;2022-09-01T15:23:17;27.20;37.90
70149;DHT22;57514;52.164;5.282;2022-09-01T15:25:45;25.80;29.40
70149;DHT22;57514;52.164;5.282;2022-09-01T15:28:13;25.90;39.90
70149;DHT22;57514;52.164;5.282;2022-09-01T15:30:40;28.60;41.90
70149;DHT22;57514;52.164;5.282;2022-09-01T15:33:09;26.70;36.10
70149;DHT22;57514;52.164;5.282;2022-09-01T15:35:41;25.80;39.60
70149;DHT22;57514;52.164;5.282;2022-09-01T15:38:08;26.50;40.20
70149;DHT22;57514;52.164;5.282;2022-09-01T15:40:41;26.50;26.40
70149;DHT22;57514;52.164;5.282;2022-09-01T15:43:08;27.20;41.20
70149;DHT22;57514;52.164;5.282;2022-09-01T15:48:05;27.70;42.50
70149;DHT22;57514;52.164;5.282;2022-09-01T15:53:01;26.60;27.40
70149;DHT22;57514;52.164;5.282;2022-09-01T15:55:36;27.50;42.50
70149;DHT22;57514;52.164;5.282;2022-09-01T15:58:03;25.30;35.10
70149;DHT22;57514;52.164;5.282;2022-09-01T16:02:58;25.00;41.30
70149;DHT22;57514;52.164;5.282;2022-09-01T16:05:29;27.50;43.10
70149;DHT22;57514;52.164;5.282;2022-09-01T16:07:57;27.20;42.90
70149;DHT22;57514;52.164;5.282;2022-09-01T16:10:27;26.20;28.60
70149;DHT22;57514;52.164;5.282;2022-09-01T16:15:25;27.60;40.30
70149;DHT22;57514;52.164;5.282;2022-09-01T16:20:22;26.30;28.30
70149;DHT22;57514;52.164;5.282;2022-09-01T16:23:17;26.70;43.40
70149;DHT22;57514;52.164;5.282;2022-09-01T16:28:28;26.10;27.10
70149;DHT22;57514;52.164;5.282;2022-09-01T16:31:05;26.20;28.90
70149;DHT22;57514;52.164;5.282;2022-09-01T16:36:47;27.10;37.10
70149;DHT22;57514;52.164;5.282;2022-09-01T16:39:33;25.90;28.60
70149;DHT22;57514;52.164;5.282;2022-09-01T16:45:16;25.90;27.30
70149;DHT22;57514;52.164;5.282;2022-09-01T16:47:53;26.70;44.30
70149;DHT22;57514;52.164;5.282;2022-09-01T16:53:20;24.50;43.20
70149;DHT22;57514;52.164;5.282;2022-09-01T16:56:04;25.70;27.90
70149;DHT22;57514;52.164;5.282;2022-09-01T16:59:05;25.60;27.90
70149;DHT22;57514;52.164;5.282;2022-09-01T17:01:51;25.50;27.90
70149;DHT22;57514;52.164;5.282;2022-09-01T17:04:39;26.70;45.60
70149;DHT22;57514;52.164;5.282;2022-09-01T17:07:27;25.50;29.80
70149;DHT22;57514;52.164;5.282;2022-09-01T17:10:04;27.00;46.20
70149;DHT22;57514;52.164;5.282;2022-09-01T17:12:46;25.00;44.80
70149;DHT22;57514;52.164;5.282;2022-09-01T17:15:17;25.30;30.00
70149;DHT22;57514;52.164;5.282;2022-09-01T17:17:50;26.80;44.50
70149;DHT22;57514;52.164;5.282;2022-09-01T17:20:22;26.80;45.50
70149;DHT22;57514;52.164;5.282;2022-09-01T17:22:51;25.10;30.30
70149;DHT22;57514;52.164;5.282;2022-09-01T17:28:17;26.10;46.40
70149;DHT22;57514;52.164;5.282;2022-09-01T17:30:58;23.40;28.90
70149;DHT22;57514;52.164;5.282;2022-09-01T17:33:43;23.50;45.40
70149;DHT22;57514;52.164;5.282;2022-09-01T17:36:22;24.90;31.40
70149;DHT22;57514;52.164;5.282;2022-09-01T17:39:10;24.30;46.50
70149;DHT22;57514;52.164;5.282;2022-09-01T17:41:48;26.30;48.10
70149;DHT22;57514;52.164;5.282;2022-09-01T17:44:30;25.40;44.30
70149;DHT22;57514;52.164;5.282;2022-09-01T17:47:33;24.10;33.00
70149;DHT22;57514;52.164;5.282;2022-09-01T17:50:13;24.50;32.50
70149;DHT22;57514;52.164;5.282;2022-09-01T18:00:39;23.10;48.40
70149;DHT22;57514;52.164;5.282;2022-09-01T18:03:29;23.30;37.00
70149;DHT22;57514;52.164;5.282;2022-09-01T18:06:11;23.50;49.20
70149;DHT22;57514;52.164;5.282;2022-09-01T18:08:44;22.30;48.90
70149;DHT22;57514;52.164;5.282;2022-09-01T18:11:34;22.30;38.30
70149;DHT22;57514;52.164;5.282;2022-09-01T18:14:17;23.80;40.50
70149;DHT22;57514;52.164;5.282;2022-09-01T18:17:03;23.20;36.40
70149;DHT22;57514;52.164;5.282;2022-09-01T18:19:43;24.90;37.00
70149;DHT22;57514;52.164;5.282;2022-09-01T18:22:15;23.20;35.60
70149;DHT22;57514;52.164;5.282;2022-09-01T18:24:55;24.30;51.80
70149;DHT22;57514;52.164;5.282;2022-09-01T18:29:56;21.80;51.40
70149;DHT22;57514;52.164;5.282;2022-09-01T18:32:40;22.80;37.20
70149;DHT22;57514;52.164;5.282;2022-09-01T18:35:35;22.70;35.40
70149;DHT22;57514;52.164;5.282;2022-09-01T18:38:24;22.50;35.60
70149;DHT22;57514;52.164;5.282;2022-09-01T18:43:42;22.50;36.30
70149;DHT22;57514;52.164;5.282;2022-09-01T18:51:45;22.20;36.70
70149;DHT22;57514;52.164;5.282;2022-09-01T18:54:28;22.10;37.40
70149;DHT22;57514;52.164;5.282;2022-09-01T18:57:03;22.00;37.70
70149;DHT22;57514;52.164;5.282;2022-09-01T19:08:51;23.00;58.10
70149;DHT22;57514;52.164;5.282;2022-09-01T19:11:35;20.50;57.00
70149;DHT22;57514;52.164;5.282;2022-09-01T19:17:09;21.60;42.20
70149;DHT22;57514;52.164;5.282;2022-09-01T19:19:47;22.20;58.70
70149;DHT22;57514;52.164;5.282;2022-09-01T19:22:22;19.70;57.50
70149;DHT22;57514;52.164;5.282;2022-09-01T19:24:58;21.10;41.10
70149;DHT22;57514;52.164;5.282;2022-09-01T19:28:13;19.90;58.20
70149;DHT22;57514;52.164;5.282;2022-09-01T19:30:48;20.80;43.70
70149;DHT22;57514;52.164;5.282;2022-09-01T19:33:20;20.80;43.90
70149;DHT22;57514;52.164;5.282;2022-09-01T19:35:51;20.80;44.10
70149;DHT22;57514;52.164;5.282;2022-09-01T19:38:22;20.70;53.10
70149;DHT22;57514;52.164;5.282;2022-09-01T19:41:01;20.10;46.30
70149;DHT22;57514;52.164;5.282;2022-09-01T19:43:33;19.70;59.30
70149;DHT22;57514;52.164;5.282;2022-09-01T19:46:20;21.70;60.60
70149;DHT22;57514;52.164;5.282;2022-09-01T19:49:14;20.10;59.80
70149;DHT22;57514;52.164;5.282;2022-09-01T19:51:50;20.50;44.90
70149;DHT22;57514;52.164;5.282;2022-09-01T19:54:24;20.00;60.10
70149;DHT22;57514;52.164;5.282;2022-09-01T19:57:13;19.30;59.90
70149;DHT22;57514;52.164;5.282;2022-09-01T20:00:00;20.30;43.40
70149;DHT22;57514;52.164;5.282;2022-09-01T20:13:36;19.00;60.60
70149;DHT22;57514;52.164;5.282;2022-09-01T20:18:50;20.00;44.30
70149;DHT22;57514;52.164;5.282;2022-09-01T20:24:01;20.40;48.90
70149;DHT22;57514;52.164;5.282;2022-09-01T20:26:34;19.70;46.70
70149;DHT22;57514;52.164;5.282;2022-09-01T20:31:48;18.40;61.40
70149;DHT22;57514;52.164;5.282;2022-09-01T20:36:49;19.70;47.10
70149;DHT22;57514;52.164;5.282;2022-09-01T20:39:30;18.30;60.00
70149;DHT22;57514;52.164;5.282;2022-09-01T20:42:24;18.80;62.00
70149;DHT22;57514;52.164;5.282;2022-09-01T20:44:58;20.20;49.90
70149;DHT22;57514;52.164;5.282;2022-09-01T20:47:28;19.70;47.70
70149;DHT22;57514;52.164;5.282;2022-09-01T20:49:59;19.60;47.60
70149;DHT22;57514;52.164;5.282;2022-09-01T20:56:08;19.50;45.50
70149;DHT22;57514;52.164;5.282;2022-09-01T21:07:34;20.80;63.70
70149;DHT22;57514;52.164;5.282;2022-09-01T21:15:29;19.30;48.10
70149;DHT22;57514;52.164;5.282;2022-09-01T21:18:25;18.90;55.60
70149;DHT22;57514;52.164;5.282;2022-09-01T21:23:21;18.30;63.00
70149;DHT22;57514;52.164;5.282;2022-09-01T21:25:48;18.90;63.40
70149;DHT22;57514;52.164;5.282;2022-09-01T21:28:17;19.20;48.70
70149;DHT22;57514;52.164;5.282;2022-09-01T21:30:47;19.20;48.70
70149;DHT22;57514;52.164;5.282;2022-09-01T21:33:17;18.80;63.60
70149;DHT22;57514;52.164;5.282;2022-09-01T21:43:13;18.90;48.90
70149;DHT22;57514;52.164;5.282;2022-09-01T21:45:43;17.70;63.40
70149;DHT22;57514;52.164;5.282;2022-09-01T21:48:10;20.40;64.40
70149;DHT22;57514;52.164;5.282;2022-09-01T21:53:07;18.80;49.40
70149;DHT22;57514;52.164;5.282;2022-09-01T22:00:31;20.10;65.20
70149;DHT22;57514;52.164;5.282;2022-09-01T22:05:28;18.70;49.80
70149;DHT22;57514;52.164;5.282;2022-09-01T22:07:57;18.60;64.80
70149;DHT22;57514;52.164;5.282;2022-09-01T22:10:26;17.70;64.40
70149;DHT22;57514;52.164;5.282;2022-09-01T22:12:54;17.60;64.50
70149;DHT22;57514;52.164;5.282;2022-09-01T22:15:23;18.60;50.10
70149;DHT22;57514;52.164;5.282;2022-09-01T22:17:51;17.20;64.30
70149;DHT22;57514;52.164;5.282;2022-09-01T22:20:23;17.30;64.50
70149;DHT22;57514;52.164;5.282;2022-09-01T22:25:21;18.40;50.40
70149;DHT22;57514;52.164;5.282;2022-09-01T22:27:49;19.80;66.20
70149;DHT22;57514;52.164;5.282;2022-09-01T22:30:16;19.70;66.20
70149;DHT22;57514;52.164;5.282;2022-09-01T22:32:44;17.00;64.90
70149;DHT22;57514;52.164;5.282;2022-09-01T22:35:14;19.70;66.50
70149;DHT22;57514;52.164;5.282;2022-09-01T22:37:42;18.80;64.70
70149;DHT22;57514;52.164;5.282;2022-09-01T22:40:11;18.20;51.60
70149;DHT22;57514;52.164;5.282;2022-09-01T22:42:39;18.70;62.80
70149;DHT22;57514;52.164;5.282;2022-09-01T22:45:07;19.30;66.70
70149;DHT22;57514;52.164;5.282;2022-09-01T22:50:06;17.50;65.80
70149;DHT22;57514;52.164;5.282;2022-09-01T22:52:34;18.10;51.30
70149;DHT22;57514;52.164;5.282;2022-09-01T23:07:18;18.30;67.10
70149;DHT22;57514;52.164;5.282;2022-09-01T23:12:12;18.70;67.50
70149;DHT22;57514;52.164;5.282;2022-09-01T23:14:40;19.00;67.80
70149;DHT22;57514;52.164;5.282;2022-09-01T23:22:01;18.30;67.80
70149;DHT22;57514;52.164;5.282;2022-09-01T23:24:29;18.50;68.10
70149;DHT22;57514;52.164;5.282;2022-09-01T23:26:55;18.30;68.00
70149;DHT22;57514;52.164;5.282;2022-09-01T23:31:50;17.00;67.70
70149;DHT22;57514;52.164;5.282;2022-09-01T23:44:08;17.30;53.90
70149;DHT22;57514;52.164;5.282;2022-09-01T23:46:40;17.30;54.10
70149;DHT22;57514;52.164;5.282;2022-09-01T23:49:08;15.80;66.40
70149;DHT22;57514;52.164;5.282;2022-09-01T23:54:04;17.10;53.10
